Time;durP1;ratioP1;P1;durP2;ratioP2;P2;SDS_P1;SDS_P2;PMS_P1;PMS_P2;Temp;Humidity;BMP_temperature;BMP_pressure;BME280_temperature;BME280_humidity;BME280_pressure;Samples;Min_cycle;Max_cycle;Signal;HPM_P1;HPM_P2
2022/08/28 00:02:05;;;;;;;3.40;2.20;;;22.10;98.40;;;;;;4995958;28;20424;-77
2022/08/28 00:04:30;;;;;;;3.35;2.22;;;22.00;98.50;;;;;;4995606;28;20105;-77
2022/08/28 00:06:56;;;;;;;4.90;2.10;;;22.00;98.30;;;;;;4995614;28;20114;-77
2022/08/28 00:09:22;;;;;;;3.92;2.25;;;22.00;98.70;;;;;;4995462;28;20066;-77
2022/08/28 00:11:49;;;;;;;4.45;3.25;;;22.00;98.60;;;;;;4995827;28;20038;-76
2022/08/28 00:14:18;;;;;;;4.55;2.47;;;21.90;99.10;;;;;;4995262;28;20061;-77
2022/08/28 00:16:44;;;;;;;3.72;2.50;;;21.90;99.10;;;;;;4995893;28;20022;-77
2022/08/28 00:19:10;;;;;;;2.67;2.30;;;21.90;99.20;;;;;;4995667;28;20022;-77
2022/08/28 00:21:36;;;;;;;4.13;2.65;;;21.90;99.20;;;;;;4995190;28;20053;-76
2022/08/28 00:24:02;;;;;;;3.88;2.33;;;21.90;99.00;;;;;;4994948;28;20034;-77
2022/08/28 00:29:25;;;;;;;3.38;2.53;;;21.80;98.90;;;;;;4951499;28;20035;-77
2022/08/28 00:31:51;;;;;;;2.15;1.80;;;21.80;98.70;;;;;;4995431;28;20038;-77
2022/08/28 00:34:17;;;;;;;2.72;2.42;;;21.80;98.80;;;;;;4994931;28;20428;-77
2022/08/28 00:36:42;;;;;;;6.90;2.50;;;21.80;98.90;;;;;;4995501;28;20025;-77
2022/08/28 00:39:08;;;;;;;3.80;2.40;;;21.90;98.90;;;;;;4995612;28;20120;-77
2022/08/28 00:41:37;;;;;;;6.25;2.55;;;21.90;99.10;;;;;;4994573;28;20049;-76
2022/08/28 00:44:17;;;;;;;2.75;2.03;;;21.80;99.10;;;;;;4995277;28;20109;-77
2022/08/28 00:46:45;;;;;;;3.83;2.58;;;21.90;99.10;;;;;;4995165;28;20093;-76
2022/08/28 00:49:12;;;;;;;5.88;2.42;;;21.90;99.40;;;;;;4995056;28;20056;-76
2022/08/28 00:54:24;;;;;;;4.15;2.78;;;21.90;99.90;;;;;;4994479;28;20037;-76
2022/08/28 00:56:52;;;;;;;3.47;2.13;;;21.90;99.80;;;;;;4995001;28;20034;-76
2022/08/28 00:59:20;;;;;;;4.63;2.38;;;21.90;99.90;;;;;;4994535;28;20034;-76
2022/08/28 01:01:47;;;;;;;5.05;2.50;;;21.90;99.90;;;;;;4994867;28;20039;-76
2022/08/28 01:04:15;;;;;;;3.50;2.22;;;21.90;99.40;;;;;;4994620;28;20483;-76
2022/08/28 01:06:44;;;;;;;4.03;2.70;;;21.90;99.40;;;;;;4994016;28;20395;-77
2022/08/28 01:09:11;;;;;;;6.50;2.47;;;21.90;99.50;;;;;;4994493;28;20105;-76
2022/08/28 01:11:39;;;;;;;4.00;2.08;;;21.90;99.50;;;;;;4994264;28;20046;-76
2022/08/28 01:14:07;;;;;;;7.85;2.30;;;21.90;99.70;;;;;;4994366;28;20486;-76
2022/08/28 01:16:34;;;;;;;3.40;2.30;;;21.90;99.90;;;;;;4994269;28;20026;-76
2022/08/28 01:19:00;;;;;;;3.38;2.25;;;21.80;99.90;;;;;;4994578;28;20081;-76
2022/08/28 01:21:36;;;;;;;2.70;2.25;;;21.70;99.90;;;;;;4994316;28;20050;-76
2022/08/28 01:24:10;;;;;;;4.75;2.92;;;21.70;99.90;;;;;;4994499;28;20022;-76
2022/08/28 01:26:37;;;;;;;3.33;2.15;;;21.70;99.90;;;;;;4993726;28;20498;-76
2022/08/28 01:29:03;;;;;;;5.63;2.80;;;21.70;99.90;;;;;;4994354;28;20118;-76
2022/08/28 01:31:30;;;;;;;6.50;2.80;;;21.80;99.90;;;;;;4993980;28;20076;-76
2022/08/28 01:33:58;;;;;;;5.05;2.72;;;21.80;99.90;;;;;;4994240;28;20026;-76
2022/08/28 01:36:24;;;;;;;3.83;3.20;;;21.80;99.90;;;;;;4992924;28;20035;-76
2022/08/28 01:38:57;;;;;;;2.63;2.42;;;21.90;99.90;;;;;;4994116;28;20026;-76
2022/08/28 01:41:23;;;;;;;5.40;3.38;;;21.90;99.90;;;;;;4993771;28;20034;-76
2022/08/28 01:43:49;;;;;;;5.88;2.80;;;21.90;99.90;;;;;;4993852;28;20437;-77
2022/08/28 01:46:16;;;;;;;4.57;2.97;;;21.90;99.90;;;;;;4994094;28;20026;-76
2022/08/28 01:48:42;;;;;;;5.50;3.22;;;21.90;99.90;;;;;;5009851;28;20026;-76
2022/08/28 01:51:09;;;;;;;3.72;2.03;;;21.90;99.90;;;;;;5013310;28;20483;-74
2022/08/28 01:53:35;;;;;;;2.47;2.10;;;21.80;99.90;;;;;;5012971;28;20379;-77
2022/08/28 01:56:03;;;;;;;4.32;2.13;;;21.80;99.90;;;;;;4999559;28;20022;-74
2022/08/28 01:58:29;;;;;;;3.83;2.53;;;21.70;99.90;;;;;;4993510;28;20026;-75
2022/08/28 02:00:56;;;;;;;4.05;2.65;;;21.70;99.90;;;;;;4993648;28;20072;-76
2022/08/28 02:03:22;;;;;;;3.85;2.63;;;21.70;99.90;;;;;;4993260;28;20030;-75
2022/08/28 02:05:48;;;;;;;2.80;1.95;;;21.70;99.90;;;;;;4993749;28;20027;-75
2022/08/28 02:08:14;;;;;;;4.30;2.47;;;21.70;99.90;;;;;;4993549;28;20034;-75
2022/08/28 02:10:42;;;;;;;10.48;2.80;;;21.60;99.90;;;;;;4993196;28;20089;-74
2022/08/28 02:13:08;;;;;;;7.10;2.38;;;21.60;99.90;;;;;;4993484;28;20068;-75
2022/08/28 02:15:35;;;;;;;4.28;2.25;;;21.60;99.90;;;;;;4993203;28;20548;-75
2022/08/28 02:18:01;;;;;;;3.88;2.22;;;21.50;99.90;;;;;;4993424;28;20033;-74
2022/08/28 02:20:28;;;;;;;5.43;2.88;;;21.40;99.90;;;;;;4992759;28;20515;-77
2022/08/28 02:22:56;;;;;;;5.30;2.47;;;21.40;99.90;;;;;;4993740;28;20027;-74
2022/08/28 02:25:22;;;;;;;2.63;2.42;;;21.30;99.90;;;;;;4993354;28;20031;-77
2022/08/28 02:27:47;;;;;;;4.20;2.60;;;21.20;99.90;;;;;;4975696;28;20066;-77
2022/08/28 02:30:16;;;;;;;2.80;2.15;;;21.20;99.90;;;;;;4993056;28;20054;-76
2022/08/28 02:32:42;;;;;;;3.72;2.10;;;21.10;99.90;;;;;;4992955;28;20034;-76
2022/08/28 02:35:11;;;;;;;5.03;1.88;;;21.10;99.90;;;;;;4993309;28;20034;-77
2022/08/28 02:37:38;;;;;;;5.38;2.20;;;21.10;99.90;;;;;;4992902;28;20109;-76
2022/08/28 02:40:04;;;;;;;3.35;1.98;;;21.00;99.90;;;;;;4993357;28;20022;-76
2022/08/28 02:42:30;;;;;;;2.78;2.20;;;21.00;99.90;;;;;;4992741;28;20089;-77
2022/08/28 02:44:55;;;;;;;2.33;2.00;;;21.00;99.90;;;;;;4993243;28;20030;-76
2022/08/28 02:47:21;;;;;;;3.75;2.30;;;20.90;99.90;;;;;;4994230;28;20433;-77
2022/08/28 02:49:47;;;;;;;2.90;1.63;;;20.90;99.90;;;;;;4979419;28;20034;-76
2022/08/28 02:52:12;;;;;;;4.05;1.80;;;20.90;99.90;;;;;;4997229;28;20074;-76
2022/08/28 02:54:38;;;;;;;2.95;1.65;;;20.90;99.90;;;;;;4996845;28;20097;-76
2022/08/28 02:57:07;;;;;;;2.58;2.22;;;20.80;99.90;;;;;;4997125;28;20070;-76
2022/08/28 02:59:33;;;;;;;2.72;1.98;;;20.80;99.90;;;;;;4996464;28;20435;-77
2022/08/28 03:02:02;;;;;;;4.60;2.50;;;20.80;99.90;;;;;;4996979;28;20039;-76
2022/08/28 03:04:30;;;;;;;3.17;2.10;;;20.80;99.90;;;;;;4996748;28;20440;-76
2022/08/28 03:06:56;;;;;;;3.70;2.70;;;20.80;99.90;;;;;;4996986;28;20084;-77
2022/08/28 03:09:22;;;;;;;3.50;2.42;;;20.80;99.90;;;;;;4996937;28;20033;-76
2022/08/28 03:11:48;;;;;;;3.30;2.15;;;20.90;99.90;;;;;;4996223;28;20026;-76
2022/08/28 03:14:13;;;;;;;2.75;2.03;;;20.90;99.90;;;;;;4996947;28;20431;-76
2022/08/28 03:16:39;;;;;;;3.20;2.40;;;20.90;99.90;;;;;;4996495;28;20015;-77
2022/08/28 03:19:05;;;;;;;2.45;2.13;;;20.90;99.90;;;;;;4996593;28;20022;-77
2022/08/28 03:21:30;;;;;;;2.38;2.08;;;21.00;99.90;;;;;;4996482;28;20092;-76
2022/08/28 03:23:56;;;;;;;4.20;2.30;;;21.00;99.90;;;;;;4996519;28;20031;-77
2022/08/28 03:26:23;;;;;;;4.70;2.42;;;21.00;99.90;;;;;;4996753;28;20066;-76
2022/08/28 03:28:52;;;;;;;3.22;2.38;;;21.00;99.90;;;;;;4996262;28;20034;-77
2022/08/28 03:31:22;;;;;;;3.20;2.20;;;21.00;99.90;;;;;;4996641;28;20109;-77
2022/08/28 03:33:49;;;;;;;3.07;2.10;;;21.00;99.90;;;;;;4978755;28;20519;-77
2022/08/28 03:36:23;;;;;;;3.45;2.45;;;21.10;99.90;;;;;;4996668;28;20097;-77
2022/08/28 03:38:51;;;;;;;3.75;2.72;;;21.10;99.90;;;;;;4996089;28;20213;-76
2022/08/28 03:41:22;;;;;;;3.65;2.47;;;21.10;99.90;;;;;;4996325;28;20109;-77
2022/08/28 03:43:48;;;;;;;4.15;2.80;;;21.20;99.90;;;;;;4996047;28;20026;-77
2022/08/28 03:46:17;;;;;;;4.20;2.67;;;21.20;99.90;;;;;;4996429;28;20022;-77
2022/08/28 03:48:43;;;;;;;3.60;2.50;;;21.10;99.90;;;;;;4995971;28;20033;-76
2022/08/28 03:51:12;;;;;;;3.83;2.70;;;21.20;99.90;;;;;;4997526;28;20028;-76
2022/08/28 03:53:38;;;;;;;5.65;2.97;;;21.20;99.90;;;;;;4996336;28;20188;-75
2022/08/28 03:56:12;;;;;;;3.17;2.58;;;21.20;99.90;;;;;;4996088;28;20383;-78
2022/08/28 03:58:39;;;;;;;3.15;2.25;;;21.30;99.90;;;;;;4997262;28;20100;-77
2022/08/28 04:01:23;;;;;;;5.10;2.50;;;21.30;99.90;;;;;;4995659;28;20034;-77
2022/08/28 04:03:49;;;;;;;5.25;2.80;;;21.30;99.90;;;;;;4995613;28;20145;-75
2022/08/28 04:06:15;;;;;;;5.53;2.85;;;21.30;99.90;;;;;;4995758;28;20090;-75
2022/08/28 04:08:41;;;;;;;3.78;2.83;;;21.30;99.90;;;;;;4995843;28;20026;-75
2022/08/28 04:11:07;;;;;;;3.30;2.78;;;21.20;99.90;;;;;;4995994;28;20076;-74
2022/08/28 04:13:33;;;;;;;4.47;2.78;;;21.30;99.90;;;;;;4995288;28;20085;-75
2022/08/28 04:16:02;;;;;;;4.63;3.13;;;21.30;99.90;;;;;;4995854;28;20022;-75
2022/08/28 04:18:29;;;;;;;6.47;3.78;;;21.30;99.90;;;;;;4995827;28;20054;-75
2022/08/28 04:21:06;;;;;;;3.97;3.13;;;21.30;99.90;;;;;;4995392;28;20142;-77
2022/08/28 04:23:33;;;;;;;4.45;3.13;;;21.30;99.90;;;;;;4995412;28;20030;-75
2022/08/28 04:25:59;;;;;;;4.00;3.08;;;21.20;99.90;;;;;;4995668;28;20030;-74
2022/08/28 04:28:25;;;;;;;8.27;3.00;;;21.20;99.90;;;;;;4995582;28;20026;-77
2022/08/28 04:30:55;;;;;;;4.85;3.00;;;21.30;99.90;;;;;;4994964;28;20379;-77
2022/08/28 04:33:23;;;;;;;3.97;3.13;;;21.30;99.90;;;;;;4995630;28;20046;-77
2022/08/28 04:35:49;;;;;;;8.80;3.33;;;21.30;99.90;;;;;;4995168;28;20442;-77
2022/08/28 04:38:15;;;;;;;4.95;3.63;;;21.30;99.90;;;;;;4995590;28;20041;-78
2022/08/28 04:40:41;;;;;;;4.55;3.40;;;21.30;99.90;;;;;;4995014;28;20046;-77
2022/08/28 04:43:07;;;;;;;4.93;3.08;;;21.30;99.90;;;;;;4995453;28;20031;-77
2022/08/28 04:45:37;;;;;;;5.53;3.65;;;21.30;99.90;;;;;;4995328;28;20163;-77
2022/08/28 04:48:04;;;;;;;5.33;3.43;;;21.30;99.90;;;;;;4995523;28;20120;-76
2022/08/28 04:50:29;;;;;;;3.97;2.97;;;21.40;99.90;;;;;;4995168;28;20364;-77
2022/08/28 04:52:55;;;;;;;3.97;2.92;;;21.40;99.90;;;;;;4994535;28;20049;-75
2022/08/28 04:55:21;;;;;;;6.82;3.38;;;21.50;99.90;;;;;;4995019;28;20034;-77
2022/08/28 04:57:47;;;;;;;4.88;3.35;;;21.50;99.90;;;;;;4994575;28;20030;-77
2022/08/28 05:00:12;;;;;;;6.28;3.08;;;21.50;99.90;;;;;;4994965;28;20479;-76
2022/08/28 05:02:38;;;;;;;7.10;3.28;;;21.50;99.90;;;;;;4994762;28;20036;-77
2022/08/28 05:05:04;;;;;;;7.07;3.40;;;21.50;99.90;;;;;;4994936;28;20029;-77
2022/08/28 05:07:30;;;;;;;5.72;3.55;;;21.50;99.90;;;;;;4995398;28;20026;-77
2022/08/28 05:09:56;;;;;;;5.03;3.00;;;21.50;99.90;;;;;;4994412;28;20034;-77
2022/08/28 05:12:21;;;;;;;4.38;3.17;;;21.60;99.90;;;;;;4994693;28;20034;-77
2022/08/28 05:14:48;;;;;;;4.80;3.22;;;21.60;99.90;;;;;;4994465;28;20034;-77
2022/08/28 05:17:14;;;;;;;3.55;2.72;;;21.70;99.90;;;;;;4994820;28;20042;-74
2022/08/28 05:19:41;;;;;;;5.03;2.90;;;21.70;99.90;;;;;;4993800;28;20093;-74
2022/08/28 05:22:08;;;;;;;4.45;3.00;;;21.70;99.90;;;;;;4994857;28;20030;-75
2022/08/28 05:24:35;;;;;;;4.22;3.00;;;21.70;99.90;;;;;;4994532;28;20065;-76
2022/08/28 05:27:01;;;;;;;4.03;3.28;;;21.60;99.90;;;;;;4994548;28;20022;-77
2022/08/28 05:29:27;;;;;;;4.32;3.90;;;21.70;99.90;;;;;;4994563;28;20030;-77
2022/08/28 05:31:53;;;;;;;4.90;3.13;;;21.60;99.90;;;;;;4994434;28;20494;-77
2022/08/28 05:34:19;;;;;;;5.32;3.05;;;21.60;99.90;;;;;;4994574;28;20027;-75
2022/08/28 05:36:45;;;;;;;5.15;3.05;;;21.50;99.90;;;;;;4994062;28;20027;-77
2022/08/28 05:39:12;;;;;;;5.47;3.42;;;21.50;99.90;;;;;;4994057;28;20026;-76
2022/08/28 05:41:40;;;;;;;7.75;3.33;;;21.50;99.90;;;;;;4994080;28;20185;-76
2022/08/28 05:44:08;;;;;;;4.53;3.67;;;21.50;99.90;;;;;;4994387;28;20423;-76
2022/08/28 05:46:36;;;;;;;4.38;3.63;;;21.40;99.90;;;;;;4994013;28;20049;-77
2022/08/28 05:49:02;;;;;;;4.28;3.03;;;21.40;99.90;;;;;;4993729;28;20192;-77
2022/08/28 05:51:28;;;;;;;4.85;3.10;;;21.40;99.90;;;;;;4993825;28;20559;-77
2022/08/28 05:53:56;;;;;;;3.78;3.20;;;21.30;99.90;;;;;;5009679;28;20057;-76
2022/08/28 05:56:25;;;;;;;5.38;3.28;;;21.30;99.90;;;;;;5013580;28;20586;-77
2022/08/28 05:58:50;;;;;;;4.40;3.50;;;21.30;99.90;;;;;;5013191;28;20030;-75
2022/08/28 06:01:19;;;;;;;4.15;3.20;;;21.30;99.90;;;;;;5013565;28;20038;-76
2022/08/28 06:03:51;;;;;;;4.90;3.33;;;21.30;99.90;;;;;;4998058;28;20022;-76
2022/08/28 06:06:17;;;;;;;4.55;3.63;;;21.30;99.90;;;;;;4993894;28;20058;-75
2022/08/28 06:08:42;;;;;;;4.07;3.30;;;21.30;99.90;;;;;;4993475;28;20136;-75
2022/08/28 06:11:08;;;;;;;5.35;3.15;;;21.30;99.90;;;;;;4993852;28;20033;-77
2022/08/28 06:13:34;;;;;;;4.57;3.45;;;21.30;99.90;;;;;;4993781;28;20022;-76
2022/08/28 06:16:00;;;;;;;5.38;3.70;;;21.40;99.90;;;;;;4993506;28;20430;-78
2022/08/28 06:18:26;;;;;;;5.22;4.18;;;21.40;99.90;;;;;;4994025;28;20018;-76
2022/08/28 06:20:53;;;;;;;5.22;3.20;;;21.40;99.90;;;;;;4993197;28;20050;-76
2022/08/28 06:23:20;;;;;;;4.45;3.20;;;21.40;99.90;;;;;;4992800;28;20030;-76
2022/08/28 06:25:49;;;;;;;5.45;3.70;;;21.50;99.90;;;;;;4993245;28;20023;-76
2022/08/28 06:28:18;;;;;;;5.43;3.60;;;21.50;99.90;;;;;;4993586;28;20022;-77
2022/08/28 06:30:44;;;;;;;9.80;3.85;;;21.60;99.90;;;;;;4993084;28;20042;-76
2022/08/28 06:33:11;;;;;;;5.13;3.63;;;21.50;99.90;;;;;;4993667;28;20030;-75
2022/08/28 06:35:44;;;;;;;6.30;3.40;;;21.50;99.90;;;;;;4993546;28;20027;-75
2022/08/28 06:38:10;;;;;;;5.88;4.10;;;21.50;99.90;;;;;;4993668;28;20032;-75
2022/08/28 06:40:41;;;;;;;4.95;3.75;;;21.60;99.90;;;;;;4993247;28;20456;-76
2022/08/28 06:43:07;;;;;;;;;;;21.60;99.90;;;;;;4993788;28;20089;-77
2022/08/28 06:45:34;;;;;;;4.78;3.53;;;21.60;99.90;;;;;;4993521;28;20293;-76
2022/08/28 06:48:00;;;;;;;4.93;3.50;;;21.60;99.90;;;;;;4993201;28;20109;-77
2022/08/28 06:50:26;;;;;;;5.75;4.00;;;21.70;99.90;;;;;;4975870;28;20113;-77
2022/08/28 06:52:51;;;;;;;5.13;3.83;;;21.70;99.90;;;;;;4975312;28;20030;-77
2022/08/28 06:55:17;;;;;;;5.47;4.05;;;21.80;99.90;;;;;;4993348;28;20030;-77
2022/08/28 06:57:43;;;;;;;4.22;3.80;;;21.80;99.90;;;;;;4993149;28;20037;-77
2022/08/28 07:00:09;;;;;;;4.35;3.83;;;21.90;99.90;;;;;;4993374;28;20022;-77
2022/08/28 07:02:35;;;;;;;5.53;4.00;;;22.00;99.90;;;;;;4975734;28;20034;-77
2022/08/28 07:05:00;;;;;;;4.78;3.65;;;22.20;99.90;;;;;;4992611;28;20037;-77
2022/08/28 07:07:26;;;;;;;7.13;4.28;;;22.20;99.90;;;;;;4992891;28;20054;-77
2022/08/28 07:09:51;;;;;;;6.00;4.25;;;22.40;99.90;;;;;;4992884;28;20550;-77
2022/08/28 07:12:17;;;;;;;6.32;4.63;;;22.40;99.90;;;;;;4992849;28;20038;-76
2022/08/28 07:14:43;;;;;;;4.57;3.72;;;22.50;99.90;;;;;;4993449;28;20376;-75
2022/08/28 07:17:09;;;;;;;5.38;4.05;;;22.50;99.90;;;;;;4992532;28;20486;-76
2022/08/28 07:19:36;;;;;;;6.03;4.22;;;22.50;99.90;;;;;;4993081;28;20055;-76
2022/08/28 07:22:02;;;;;;;5.68;4.70;;;22.50;99.90;;;;;;4992543;28;20039;-76
2022/08/28 07:24:28;;;;;;;5.15;4.50;;;22.50;99.90;;;;;;4992987;28;20031;-75
2022/08/28 07:26:54;;;;;;;6.68;4.60;;;22.50;99.90;;;;;;4975049;28;20029;-76
2022/08/28 07:29:21;;;;;;;5.93;4.13;;;22.50;99.90;;;;;;4992762;28;20029;-75
2022/08/28 07:31:52;;;;;;;5.40;4.15;;;22.50;99.90;;;;;;4992563;28;20085;-75
2022/08/28 07:34:20;;;;;;;6.43;4.40;;;22.50;99.90;;;;;;4994754;28;20530;-75
2022/08/28 07:36:47;;;;;;;6.10;4.18;;;22.50;99.90;;;;;;4996295;28;20379;-75
2022/08/28 07:39:14;;;;;;;7.15;4.68;;;22.50;99.90;;;;;;4996736;28;20031;-76
2022/08/28 07:41:41;;;;;;;7.25;5.55;;;22.50;99.90;;;;;;4996695;28;20077;-77
2022/08/28 07:46:56;;;;;;;5.20;4.50;;;22.50;99.90;;;;;;4998255;28;20391;-75
2022/08/28 07:49:23;;;;;;;7.05;4.80;;;22.40;99.90;;;;;;4996443;28;20037;-75
2022/08/28 07:51:49;;;;;;;6.28;4.75;;;22.40;99.90;;;;;;4995840;28;20034;-75
2022/08/28 07:54:15;;;;;;;5.53;4.68;;;22.40;99.90;;;;;;4996085;28;20030;-75
2022/08/28 07:56:42;;;;;;;8.02;4.43;;;22.40;99.90;;;;;;4996121;28;20036;-75
2022/08/28 07:59:09;;;;;;;6.32;4.72;;;22.40;99.90;;;;;;5008170;28;20033;-75
2022/08/28 08:01:40;;;;;;;6.07;4.80;;;22.40;99.90;;;;;;5015657;28;20121;-75
2022/08/28 08:04:07;;;;;;;5.97;4.80;;;22.40;99.90;;;;;;5015361;28;20030;-77
2022/08/28 08:06:34;;;;;;;6.70;5.00;;;22.50;99.90;;;;;;5015660;28;20383;-75
2022/08/28 08:09:01;;;;;;;6.93;5.03;;;22.60;99.90;;;;;;5015214;28;20026;-75
2022/08/28 08:11:26;;;;;;;10.98;4.88;;;22.70;99.90;;;;;;5015860;28;20374;-75
2022/08/28 08:13:53;;;;;;;14.05;5.45;;;22.80;99.90;;;;;;5015167;28;20032;-77
2022/08/28 08:16:23;;;;;;;7.22;4.90;;;22.80;99.90;;;;;;5015489;28;20025;-77
2022/08/28 08:18:49;;;;;;;8.35;5.18;;;22.70;99.90;;;;;;5015445;28;20025;-77
2022/08/28 08:21:17;;;;;;;8.35;6.40;;;22.70;99.90;;;;;;5015054;28;20054;-77
2022/08/28 08:23:43;;;;;;;8.50;6.45;;;22.60;99.90;;;;;;5015143;28;20032;-76
2022/08/28 08:26:16;;;;;;;10.93;6.53;;;22.60;99.90;;;;;;5015229;28;20029;-77
2022/08/28 08:28:42;;;;;;;8.40;5.70;;;22.40;99.90;;;;;;5015422;28;20044;-76
2022/08/28 08:31:31;;;;;;;10.52;6.18;;;22.30;99.90;;;;;;5014781;28;20137;-75
2022/08/28 08:34:02;;;;;;;12.07;6.97;;;22.30;99.90;;;;;;5014863;28;20053;-75
2022/08/28 08:36:29;;;;;;;11.90;6.68;;;22.30;99.90;;;;;;5015284;28;20030;-76
2022/08/28 08:38:55;;;;;;;11.73;6.78;;;22.20;99.90;;;;;;5014553;28;20044;-75
2022/08/28 08:41:33;;;;;;;8.68;6.53;;;22.20;99.90;;;;;;5014901;28;20343;-75
2022/08/28 08:44:22;;;;;;;9.30;6.60;;;22.30;99.90;;;;;;5014693;28;20034;-75
2022/08/28 08:47:09;;;;;;;13.20;6.78;;;22.30;99.90;;;;;;5014251;28;20057;-77
2022/08/28 08:49:42;;;;;;;13.82;6.53;;;22.20;99.90;;;;;;5014880;28;20026;-76
2022/08/28 08:52:10;;;;;;;10.70;7.57;;;22.20;99.90;;;;;;5014453;28;20484;-76
2022/08/28 08:54:49;;;;;;;16.17;8.13;;;22.30;99.90;;;;;;5014920;28;20378;-76
2022/08/28 08:57:15;;;;;;;13.35;7.80;;;22.30;99.90;;;;;;5013977;28;20467;-77
2022/08/28 08:59:41;;;;;;;8.80;6.32;;;22.40;99.90;;;;;;5014685;28;20152;-77
2022/08/28 09:02:14;;;;;;;10.13;7.13;;;22.40;99.90;;;;;;5014157;28;20034;-77
2022/08/28 09:04:45;;;;;;;13.20;7.00;;;22.40;99.90;;;;;;5014534;28;20033;-77
2022/08/28 09:07:24;;;;;;;10.37;6.47;;;22.40;99.90;;;;;;5014163;28;20029;-77
2022/08/28 09:09:53;;;;;;;10.95;6.03;;;22.40;99.90;;;;;;5014446;28;20053;-77
2022/08/28 09:12:25;;;;;;;10.18;6.45;;;22.40;99.90;;;;;;5014401;28;20101;-77
2022/08/28 09:15:07;;;;;;;8.88;5.97;;;22.50;99.90;;;;;;5014445;28;20165;-77
2022/08/28 09:17:35;;;;;;;10.02;5.65;;;22.60;99.90;;;;;;5014367;28;20018;-75
2022/08/28 09:20:01;;;;;;;8.32;5.20;;;22.60;99.90;;;;;;5013435;28;20356;-76
2022/08/28 09:22:27;;;;;;;8.77;5.78;;;22.70;99.90;;;;;;5013936;28;20057;-76
2022/08/28 09:24:53;;;;;;;13.63;5.93;;;22.70;99.90;;;;;;5014166;28;20026;-76
2022/08/28 09:27:30;;;;;;;6.63;5.05;;;22.80;99.90;;;;;;5013960;28;20030;-75
2022/08/28 09:30:02;;;;;;;8.48;5.15;;;22.80;99.90;;;;;;5013723;28;20033;-76
2022/08/28 09:32:37;;;;;;;7.72;5.13;;;22.90;99.90;;;;;;5013767;28;20501;-76
2022/08/28 09:35:26;;;;;;;6.40;4.70;;;23.00;99.90;;;;;;5013539;28;20127;-76
2022/08/28 09:37:52;;;;;;;7.50;4.60;;;23.10;99.90;;;;;;5014016;28;20302;-76
2022/08/28 09:43:25;;;;;;;6.45;4.18;;;23.20;99.90;;;;;;5013787;28;20026;-76
2022/08/28 09:43:28;;;;;;;6.32;4.00;;;23.30;99.90;;;;;;5013139;28;20084;-76
2022/08/28 09:46:01;;;;;;;5.85;4.22;;;23.40;99.90;;;;;;5012922;28;20052;-76
2022/08/28 09:48:33;;;;;;;6.93;4.22;;;23.50;99.90;;;;;;5013779;28;20034;-75
2022/08/28 09:51:05;;;;;;;5.90;3.83;;;23.60;99.90;;;;;;5013153;28;20030;-77
2022/08/28 09:53:34;;;;;;;5.32;3.88;;;23.80;99.90;;;;;;5013666;28;20117;-76
2022/08/28 09:56:23;;;;;;;6.70;4.07;;;24.00;99.90;;;;;;5013450;28;20084;-77
2022/08/28 09:58:56;;;;;;;5.63;3.72;;;24.10;99.90;;;;;;5013528;28;20118;-77
2022/08/28 10:01:40;;;;;;;5.43;3.22;;;24.20;99.90;;;;;;5013713;28;20034;-77
2022/08/28 10:04:15;;;;;;;4.05;3.30;;;24.30;99.90;;;;;;4995163;28;20022;-77
2022/08/28 10:07:09;;;;;;;4.70;3.65;;;24.40;99.90;;;;;;4993926;28;20022;-76
2022/08/28 10:09:46;;;;;;;3.97;3.22;;;24.60;99.70;;;;;;4994028;28;20035;-75
2022/08/28 10:12:32;;;;;;;7.00;3.70;;;24.60;98.80;;;;;;4993405;28;20022;-77
2022/08/28 10:15:24;;;;;;;3.60;3.03;;;24.60;98.80;;;;;;4993095;28;20046;-76
2022/08/28 10:18:08;;;;;;;4.38;3.33;;;24.80;98.80;;;;;;4963682;28;20506;-77
2022/08/28 10:20:54;;;;;;;5.55;3.33;;;24.70;98.30;;;;;;4993719;28;20054;-77
2022/08/28 10:23:41;;;;;;;2.90;2.60;;;24.80;98.40;;;;;;4993297;28;20030;-77
2022/08/28 10:26:26;;;;;;;4.25;3.00;;;24.90;98.20;;;;;;4993333;28;20213;-77
2022/08/28 10:29:26;;;;;;;3.45;2.80;;;25.00;97.60;;;;;;4993423;28;20484;-77
2022/08/28 10:32:00;;;;;;;3.70;2.70;;;25.10;97.80;;;;;;4993608;28;20127;-77
2022/08/28 10:34:51;;;;;;;3.05;2.15;;;25.30;97.60;;;;;;4993629;28;20033;-76
2022/08/28 10:37:29;;;;;;;1.65;1.55;;;25.30;97.30;;;;;;4992861;28;20165;-77
2022/08/28 10:40:03;;;;;;;1.58;1.40;;;25.50;94.60;;;;;;4993736;28;20022;-75
2022/08/28 10:42:37;;;;;;;2.28;1.25;;;25.40;93.80;;;;;;4993444;28;20042;-77
2022/08/28 10:45:19;;;;;;;1.30;1.20;;;25.40;92.70;;;;;;4992785;28;20027;-76
2022/08/28 10:47:51;;;;;;;2.95;1.20;;;25.40;93.50;;;;;;4993570;28;20375;-77
2022/08/28 10:50:36;;;;;;;1.75;1.17;;;25.50;92.30;;;;;;4993030;28;20118;-77
2022/08/28 10:53:06;;;;;;;1.10;1.00;;;25.50;92.40;;;;;;4993044;28;20084;-75
2022/08/28 10:56:09;;;;;;;1.95;0.95;;;25.70;93.00;;;;;;4993345;28;20379;-76
2022/08/28 10:58:38;;;;;;;1.73;1.30;;;25.80;93.00;;;;;;4949873;28;20046;-77
2022/08/28 11:01:08;;;;;;;2.15;1.50;;;25.90;93.10;;;;;;4992745;28;20037;-76
2022/08/28 11:03:48;;;;;;;1.40;1.30;;;26.10;93.00;;;;;;4993181;28;20054;-76
2022/08/28 11:06:26;;;;;;;3.05;1.52;;;26.10;91.90;;;;;;4992804;28;20035;-76
2022/08/28 11:08:58;;;;;;;1.42;1.33;;;26.10;92.10;;;;;;4994553;28;20026;-76
2022/08/28 11:11:44;;;;;;;2.33;1.88;;;26.10;91.90;;;;;;4996660;28;20035;-76
2022/08/28 11:14:37;;;;;;;2.38;1.98;;;26.00;91.60;;;;;;4996256;28;20114;-75
2022/08/28 11:17:09;;;;;;;2.15;1.88;;;25.90;91.60;;;;;;4996608;28;20031;-77
2022/08/28 11:20:08;;;;;;;2.10;1.90;;;25.80;92.00;;;;;;4997250;28;20058;-76
2022/08/28 11:22:48;;;;;;;2.63;2.00;;;26.00;92.10;;;;;;4996832;28;20030;-75
2022/08/28 11:25:48;;;;;;;2.25;2.05;;;26.10;91.30;;;;;;4996617;28;20117;-77
2022/08/28 11:28:46;;;;;;;3.42;2.20;;;26.30;90.10;;;;;;4982131;28;20035;-76
2022/08/28 11:31:14;;;;;;;2.50;2.25;;;26.30;89.60;;;;;;4990467;28;20607;-76
2022/08/28 11:33:44;;;;;;;2.28;1.80;;;26.30;90.20;;;;;;4996611;28;20030;-76
2022/08/28 11:36:21;;;;;;;4.15;2.47;;;26.40;88.20;;;;;;4996029;28;20034;-75
2022/08/28 11:38:56;;;;;;;2.17;1.98;;;26.40;88.20;;;;;;4996956;28;20041;-75
2022/08/28 11:41:29;;;;;;;3.35;2.40;;;26.50;87.60;;;;;;4995928;28;20038;-75
2022/08/28 11:44:11;;;;;;;3.72;2.13;;;26.40;87.60;;;;;;4998887;28;20034;-75
2022/08/28 11:46:46;;;;;;;3.47;2.75;;;26.40;86.00;;;;;;4996218;28;20392;-75
2022/08/28 11:49:32;;;;;;;4.03;2.47;;;26.40;86.80;;;;;;4996007;28;20027;-77
2022/08/28 11:52:39;;;;;;;3.40;2.97;;;26.50;88.50;;;;;;4979139;28;20041;-77
2022/08/28 11:55:38;;;;;;;4.53;2.80;;;26.70;90.30;;;;;;4995796;28;20080;-77
2022/08/28 11:58:09;;;;;;;3.78;2.65;;;26.70;84.40;;;;;;4996260;28;20106;-76
2022/08/28 12:00:35;;;;;;;3.78;3.17;;;26.70;84.90;;;;;;5003029;28;20030;-76
2022/08/28 12:03:30;;;;;;;4.35;3.22;;;26.60;84.80;;;;;;5015571;28;20034;-76
2022/08/28 12:05:58;;;;;;;2.53;2.30;;;26.60;85.30;;;;;;5015789;28;20080;-75
2022/08/28 12:08:52;;;;;;;3.70;3.10;;;26.60;83.80;;;;;;5015282;28;20033;-78
2022/08/28 12:11:39;;;;;;;2.97;2.67;;;26.50;83.00;;;;;;5015143;28;20496;-77
2022/08/28 12:14:28;;;;;;;4.22;3.10;;;26.50;83.20;;;;;;5015435;28;20447;-78
2022/08/28 12:16:57;;;;;;;4.80;3.30;;;26.50;84.70;;;;;;5012754;28;20030;-75
2022/08/28 12:19:41;;;;;;;4.80;3.00;;;26.60;83.90;;;;;;5014571;28;20025;-75
2022/08/28 12:22:17;;;;;;;2.90;2.55;;;26.50;82.80;;;;;;5014631;28;20042;-76
2022/08/28 12:24:48;;;;;;;3.72;2.60;;;26.60;82.80;;;;;;5015618;28;20087;-77
2022/08/28 12:27:14;;;;;;;6.68;2.78;;;26.50;82.50;;;;;;5015067;28;20033;-74
2022/08/28 12:29:49;;;;;;;3.20;2.90;;;26.70;82.60;;;;;;5015507;28;20149;-76
2022/08/28 12:32:26;;;;;;;5.00;2.78;;;26.60;82.10;;;;;;5014976;28;20081;-77
2022/08/28 12:34:58;;;;;;;3.40;3.00;;;26.60;80.70;;;;;;5015284;28;20478;-77
2022/08/28 12:37:44;;;;;;;4.63;2.70;;;26.60;81.20;;;;;;5014484;28;20386;-77
2022/08/28 12:40:32;;;;;;;2.90;2.60;;;26.60;81.90;;;;;;5014434;28;20140;-78
2022/08/28 12:43:09;;;;;;;3.92;2.80;;;26.60;81.60;;;;;;5015215;28;20042;-77
2022/08/28 12:45:48;;;;;;;2.90;2.33;;;26.60;81.60;;;;;;5015166;28;20064;-77
2022/08/28 12:48:19;;;;;;;2.75;2.47;;;26.50;80.70;;;;;;5014472;28;20483;-77
2022/08/28 12:50:45;;;;;;;4.05;2.22;;;26.50;79.80;;;;;;5015055;28;20030;-77
2022/08/28 12:53:15;;;;;;;3.95;2.35;;;26.50;79.60;;;;;;5014171;28;20037;-78
2022/08/28 12:55:42;;;;;;;3.88;2.67;;;26.50;79.10;;;;;;5014922;28;20063;-77
2022/08/28 12:58:13;;;;;;;2.80;2.40;;;26.40;78.50;;;;;;5014729;28;20033;-76
2022/08/28 13:00:51;;;;;;;2.72;2.10;;;26.40;79.00;;;;;;5014552;28;20107;-77
2022/08/28 13:03:16;;;;;;;3.25;2.50;;;26.40;78.90;;;;;;5014286;28;20050;-77
2022/08/28 13:05:42;;;;;;;3.38;2.70;;;26.40;79.50;;;;;;5014506;28;20041;-76
2022/08/28 13:08:10;;;;;;;3.08;2.75;;;26.30;81.00;;;;;;5014674;28;20108;-77
2022/08/28 13:10:40;;;;;;;2.88;2.50;;;26.30;82.60;;;;;;5014053;28;20467;-77
2022/08/28 13:13:16;;;;;;;4.25;2.67;;;26.20;80.30;;;;;;5014600;28;20034;-77